createdAt,value
2019-06-01T00:01:55.322Z,66.00
2019-06-01T00:04:25.300Z,66.10
2019-06-01T00:06:55.142Z,66.00
2019-06-01T00:09:24.799Z,66.40
2019-06-01T00:11:54.408Z,65.90
2019-06-01T00:14:23.993Z,66.10
2019-06-01T00:16:53.589Z,66.40
2019-06-01T00:19:23.277Z,66.60
2019-06-01T00:21:54.232Z,66.50
2019-06-01T00:24:24.142Z,66.60
2019-06-01T00:26:53.798Z,66.60
2019-06-01T00:29:23.537Z,66.90
2019-06-01T00:31:53.199Z,66.70
2019-06-01T00:34:22.917Z,66.80
2019-06-01T00:36:52.650Z,67.20
2019-06-01T00:39:22.385Z,66.80
2019-06-01T00:41:52.490Z,67.10
2019-06-01T00:44:23.440Z,67.00
2019-06-01T00:46:53.045Z,68.00
2019-06-01T00:49:22.629Z,66.90
2019-06-01T00:51:53.658Z,67.00
2019-06-01T00:54:23.396Z,67.10
2019-06-01T00:56:53.845Z,67.40
2019-06-01T00:59:24.624Z,67.40
2019-06-01T01:01:54.360Z,67.70
2019-06-01T01:04:23.974Z,67.70
2019-06-01T01:06:54.804Z,67.80
2019-06-01T01:09:24.472Z,67.70
2019-06-01T01:11:55.301Z,67.70
2019-06-01T01:14:25.122Z,68.00
2019-06-01T01:16:55.697Z,68.10
2019-06-01T01:19:25.411Z,68.20
2019-06-01T01:21:56.341Z,68.20
2019-06-01T01:24:26.120Z,68.10
2019-06-01T01:26:56.707Z,68.30
2019-06-01T01:29:26.509Z,68.00
2019-06-01T01:31:57.292Z,68.40
2019-06-01T01:34:27.007Z,68.00
2019-06-01T01:36:57.994Z,67.70
2019-06-01T01:39:27.797Z,67.50
2019-06-01T01:41:58.539Z,68.00
2019-06-01T01:44:28.187Z,67.70
2019-06-01T01:46:58.841Z,67.70
2019-06-01T01:49:28.684Z,68.10
2019-06-01T01:51:59.503Z,67.80
2019-06-01T01:54:29.201Z,67.70
2019-06-01T01:56:58.816Z,68.10
2019-06-01T01:59:28.403Z,68.40
2019-06-01T02:01:58.647Z,68.00
2019-06-01T02:04:28.265Z,68.00
2019-06-01T02:06:58.454Z,68.10
2019-06-01T02:09:28.285Z,68.20
2019-06-01T02:11:57.879Z,68.10
2019-06-01T02:14:27.536Z,67.90
2019-06-01T02:16:58.098Z,68.00
2019-06-01T02:19:27.744Z,68.50
2019-06-01T02:21:58.316Z,68.30
2019-06-01T02:24:28.229Z,68.30
2019-06-01T02:26:59.203Z,68.20
2019-06-01T02:29:28.921Z,68.10
2019-06-01T02:31:59.089Z,68.20
2019-06-01T02:34:30.096Z,68.00
2019-06-01T02:37:00.222Z,69.10
2019-06-01T02:39:34.699Z,68.00
2019-06-01T02:42:05.404Z,68.30
2019-06-01T02:44:35.420Z,68.30
2019-06-01T02:47:06.404Z,68.20
2019-06-01T02:49:36.237Z,68.30
2019-06-01T02:52:06.521Z,68.20
2019-06-01T02:54:36.236Z,68.50
2019-06-01T02:57:06.221Z,68.40
2019-06-01T02:59:35.902Z,68.30
2019-06-01T03:02:10.919Z,68.10
2019-06-01T03:04:37.321Z,68.30
2019-06-01T03:07:09.451Z,68.60
2019-06-01T03:09:40.672Z,68.50
2019-06-01T03:12:14.752Z,68.40
2019-06-01T03:14:46.921Z,68.20
2019-06-01T03:17:19.665Z,69.10
2019-06-01T03:19:52.411Z,68.90
2019-06-01T03:22:24.936Z,68.90
2019-06-01T03:24:57.629Z,68.90
2019-06-01T03:27:29.952Z,68.70
2019-06-01T03:30:03.409Z,68.70
2019-06-01T03:32:36.593Z,68.60
2019-06-01T03:35:04.963Z,68.60
2019-06-01T03:37:34.695Z,68.60
2019-06-01T03:40:15.796Z,68.70
2019-06-01T03:42:40.706Z,68.70
2019-06-01T03:45:11.870Z,68.80
2019-06-01T03:47:41.685Z,68.70
2019-06-01T03:50:11.372Z,68.90
2019-06-01T03:52:40.973Z,68.90
2019-06-01T03:55:10.724Z,69.20
2019-06-01T03:57:40.641Z,69.10
2019-06-01T04:00:12.023Z,69.10
2019-06-01T04:02:42.296Z,69.30
2019-06-01T04:05:12.409Z,69.60
2019-06-01T04:07:42.562Z,69.80
2019-06-01T04:10:12.768Z,69.90
2019-06-01T04:12:42.442Z,70.10
2019-06-01T04:15:16.271Z,70.90
2019-06-01T04:17:43.727Z,71.00
2019-06-01T04:20:14.230Z,71.10
2019-06-01T04:22:43.859Z,71.00
2019-06-01T04:25:13.533Z,71.60
2019-06-01T04:27:43.164Z,71.60
2019-06-01T04:30:13.696Z,71.80
2019-06-01T04:32:49.934Z,71.90
2019-06-01T04:35:14.799Z,71.60
2019-06-01T04:37:44.483Z,71.60
2019-06-01T04:40:14.269Z,71.40
2019-06-01T04:42:43.877Z,71.30
2019-06-01T04:45:14.398Z,71.30
2019-06-01T04:47:44.148Z,71.10
2019-06-01T04:50:14.883Z,71.30
2019-06-01T04:52:44.508Z,70.70
2019-06-01T04:55:15.183Z,70.40
2019-06-01T04:57:44.960Z,70.40
2019-06-01T05:00:25.682Z,70.10
2019-06-01T05:02:47.327Z,70.20
2019-06-01T05:05:16.995Z,70.00
2019-06-01T05:07:46.612Z,69.80
2019-06-01T05:10:16.374Z,69.80
2019-06-01T05:12:46.007Z,69.70
2019-06-01T05:15:16.233Z,69.80
2019-06-01T05:17:46.859Z,69.20
2019-06-01T05:20:16.928Z,69.40
2019-06-01T05:22:46.536Z,69.10
2019-06-01T05:25:17.206Z,68.90
2019-06-01T05:27:46.823Z,69.50
2019-06-01T05:30:17.637Z,68.90
2019-06-01T05:32:47.596Z,69.10
2019-06-01T05:35:17.987Z,68.20
2019-06-01T05:37:47.677Z,69.50
2019-06-01T05:40:19.784Z,69.50
2019-06-01T05:42:48.876Z,68.20
2019-06-01T05:45:19.561Z,67.90
2019-06-01T05:47:49.188Z,67.60
2019-06-01T05:50:19.628Z,67.20
2019-06-01T05:52:49.288Z,66.90
2019-06-01T05:55:19.037Z,67.10
2019-06-01T05:57:48.658Z,67.20
2019-06-01T06:00:21.239Z,66.80
2019-06-01T06:02:51.037Z,67.20
2019-06-01T06:05:20.690Z,67.40
2019-06-01T06:07:50.352Z,67.10
2019-06-01T06:10:20.196Z,67.00
2019-06-01T06:12:49.869Z,66.40
2019-06-01T06:15:19.770Z,66.60
2019-06-01T06:17:49.483Z,65.90
2019-06-01T06:20:20.150Z,65.80
2019-06-01T06:22:49.926Z,65.80
2019-06-01T06:25:19.585Z,66.50
2019-06-01T06:27:49.218Z,65.70
2019-06-01T06:30:19.474Z,65.40
2019-06-01T06:32:49.062Z,65.60
2019-06-01T06:35:19.492Z,65.20
2019-06-01T06:37:50.460Z,65.10
2019-06-01T06:40:22.277Z,65.30
2019-06-01T06:42:51.963Z,65.30
2019-06-01T06:45:22.752Z,64.80
2019-06-01T06:47:52.600Z,65.10
2019-06-01T06:50:23.444Z,64.40
2019-06-01T06:52:53.324Z,64.30
2019-06-01T06:55:23.949Z,64.10
2019-06-01T06:57:53.824Z,63.60
2019-06-01T07:00:24.806Z,63.70
2019-06-01T07:02:54.595Z,62.80
2019-06-01T07:05:25.418Z,62.60
2019-06-01T07:07:55.393Z,62.70
2019-06-01T07:10:26.246Z,62.80
2019-06-01T07:12:56.196Z,61.30
2019-06-01T07:15:25.902Z,61.60
2019-06-01T07:17:55.564Z,61.50
2019-06-01T07:20:25.720Z,61.20
2019-06-01T07:22:55.376Z,61.60
2019-06-01T07:25:25.158Z,61.50
2019-06-01T07:27:54.826Z,61.10
2019-06-01T07:30:24.603Z,61.00
2019-06-01T07:32:54.266Z,61.00
2019-06-01T07:35:24.427Z,61.20
2019-06-01T07:37:54.191Z,61.20
2019-06-01T07:40:24.837Z,61.40
2019-06-01T07:42:54.608Z,60.90
2019-06-01T07:45:24.863Z,61.00
2019-06-01T07:47:55.565Z,61.00
2019-06-01T07:50:25.974Z,61.80
2019-06-01T07:52:56.792Z,61.00
2019-06-01T07:55:27.585Z,60.80
2019-06-01T07:57:57.383Z,60.70
2019-06-01T08:00:27.236Z,60.40
2019-06-01T08:02:56.883Z,59.70
2019-06-01T08:05:26.550Z,60.60
2019-06-01T08:07:56.216Z,61.20
2019-06-01T08:10:26.478Z,60.60
2019-06-01T08:12:57.216Z,60.60
2019-06-01T08:15:28.054Z,60.50
2019-06-01T08:17:59.203Z,60.20
2019-06-01T08:20:30.226Z,60.30
2019-06-01T08:23:01.052Z,59.60
2019-06-01T08:25:30.814Z,60.10
2019-06-01T08:28:01.421Z,60.30
2019-06-01T08:30:31.127Z,60.20
2019-06-01T08:33:00.792Z,60.00
2019-06-01T08:35:31.169Z,60.10
2019-06-01T08:38:00.903Z,60.40
2019-06-01T08:40:31.439Z,59.80
2019-06-01T08:43:01.229Z,59.70
2019-06-01T08:45:35.361Z,59.70
2019-06-01T08:48:02.266Z,59.50
2019-06-01T08:50:32.055Z,59.50
2019-06-01T08:53:01.841Z,59.40
2019-06-01T08:55:32.333Z,59.30
2019-06-01T08:58:01.972Z,59.30
2019-06-01T09:00:32.651Z,59.30
2019-06-01T09:03:02.434Z,59.20
2019-06-01T09:05:33.023Z,59.30
2019-06-01T09:08:02.885Z,59.40
2019-06-01T09:10:33.290Z,59.30
2019-06-01T09:13:03.103Z,59.30
2019-06-01T09:15:33.924Z,59.10
2019-06-01T09:18:03.737Z,59.30
2019-06-01T09:20:35.882Z,59.30
2019-06-01T09:23:04.816Z,59.30
2019-06-01T09:25:35.873Z,59.10
2019-06-01T09:28:06.746Z,59.10
2019-06-01T09:30:36.489Z,59.00
2019-06-01T09:33:06.183Z,58.80
2019-06-01T09:35:52.678Z,58.80
2019-06-01T09:38:07.316Z,59.00
2019-06-01T09:40:37.376Z,59.50
2019-06-01T09:43:07.252Z,59.00
2019-06-01T09:45:36.847Z,58.80
2019-06-01T09:48:06.607Z,58.50
2019-06-01T09:50:36.288Z,58.80
2019-06-01T09:53:05.980Z,58.80
2019-06-01T09:55:36.457Z,58.60
2019-06-01T09:58:06.412Z,58.70
2019-06-01T10:00:41.448Z,58.60
2019-06-01T10:03:07.706Z,58.40
2019-06-01T10:05:38.523Z,58.50
2019-06-01T10:08:08.253Z,58.40
2019-06-01T10:10:38.100Z,58.50
2019-06-01T10:13:08.172Z,58.50
2019-06-01T10:15:38.560Z,58.50
2019-06-01T10:18:08.322Z,58.40
2019-06-01T10:20:39.112Z,58.60
2019-06-01T10:23:08.823Z,58.40
2019-06-01T10:25:38.637Z,58.80
2019-06-01T10:28:08.338Z,58.50
2019-06-01T10:30:38.017Z,58.60
2019-06-01T10:33:07.636Z,58.50
2019-06-01T10:35:37.341Z,58.50
2019-06-01T10:38:07.064Z,58.40
2019-06-01T10:40:37.582Z,58.50
2019-06-01T10:43:07.426Z,58.40
2019-06-01T10:45:37.787Z,58.50
2019-06-01T10:48:07.663Z,58.30
2019-06-01T10:50:38.555Z,58.30
2019-06-01T10:53:08.260Z,58.20
2019-06-01T10:55:38.413Z,58.10
2019-06-01T10:58:08.512Z,58.00
2019-06-01T11:00:45.487Z,57.80
2019-06-01T11:03:09.368Z,57.70
2019-06-01T11:05:39.058Z,57.50
2019-06-01T11:08:08.664Z,57.30
2019-06-01T11:10:38.943Z,57.40
2019-06-01T11:13:08.643Z,57.50
2019-06-01T11:15:39.087Z,57.40
2019-06-01T11:18:08.848Z,57.50
2019-06-01T11:20:39.379Z,57.60
2019-06-01T11:23:09.205Z,57.70
2019-06-01T11:25:39.618Z,57.50
2019-06-01T11:28:09.515Z,57.80
2019-06-01T11:30:39.977Z,57.90
2019-06-01T11:33:10.716Z,57.70
2019-06-01T11:35:41.513Z,57.80
2019-06-01T11:38:11.384Z,57.60
2019-06-01T11:40:40.976Z,57.80
2019-06-01T11:43:10.587Z,57.50
2019-06-01T11:45:40.812Z,57.60
2019-06-01T11:48:10.440Z,57.60
2019-06-01T11:50:41.199Z,57.50
2019-06-01T11:53:12.023Z,57.60
2019-06-01T11:55:41.618Z,57.50
2019-06-01T11:58:11.789Z,57.50
2019-06-01T12:00:41.710Z,57.40
2019-06-01T12:03:11.290Z,55.30
2019-06-01T12:05:42.085Z,52.80
2019-06-01T12:08:11.984Z,51.20
2019-06-01T12:10:41.613Z,50.60
2019-06-01T12:13:11.191Z,50.70
2019-06-01T12:15:40.885Z,51.30
2019-06-01T12:18:10.590Z,51.90
2019-06-01T12:20:40.741Z,52.50
2019-06-01T12:23:10.569Z,53.00
2019-06-01T12:25:40.242Z,53.00
2019-06-01T12:28:09.936Z,53.10
2019-06-01T12:30:39.596Z,53.20
2019-06-01T12:33:09.194Z,53.00
2019-06-01T12:35:40.064Z,53.10
2019-06-01T12:38:09.764Z,52.70
2019-06-01T12:40:39.433Z,52.50
2019-06-01T12:43:09.064Z,52.10
2019-06-01T12:45:39.679Z,52.20
2019-06-01T12:48:09.374Z,51.70
2019-06-01T12:50:39.888Z,51.50
2019-06-01T12:53:09.588Z,51.80
2019-06-01T12:55:40.471Z,51.00
2019-06-01T12:58:10.189Z,50.60
2019-06-01T13:00:40.368Z,50.20
2019-06-01T13:03:10.080Z,49.70
2019-06-01T13:05:39.686Z,49.50
2019-06-01T13:08:09.273Z,49.40
2019-06-01T13:10:38.898Z,48.70
2019-06-01T13:13:08.526Z,48.50
2019-06-01T13:15:38.120Z,48.20
2019-06-01T13:18:07.738Z,47.80
2019-06-01T13:20:37.331Z,47.40
2019-06-01T13:23:06.956Z,46.70
2019-06-01T13:25:36.533Z,46.20
2019-06-01T13:28:06.274Z,45.50
2019-06-01T13:30:35.977Z,45.10
2019-06-01T13:33:05.586Z,44.70
2019-06-01T13:35:35.186Z,44.30
2019-06-01T13:38:12.150Z,43.80
2019-06-01T13:40:36.105Z,43.50
2019-06-01T13:43:05.711Z,43.30
2019-06-01T13:45:35.409Z,43.00
2019-06-01T13:48:05.071Z,42.30
2019-06-01T13:50:34.765Z,41.40
2019-06-01T13:53:04.500Z,40.40
2019-06-01T13:55:34.112Z,39.60
2019-06-01T13:58:03.864Z,39.00
2019-06-01T14:00:33.566Z,38.40
2019-06-01T14:03:03.142Z,37.80
2019-06-01T14:05:32.759Z,36.90
2019-06-01T14:08:02.431Z,36.00
2019-06-01T14:10:33.122Z,35.10
2019-06-01T14:13:05.170Z,34.70
2019-06-01T14:15:34.078Z,33.90
2019-06-01T14:18:03.832Z,33.20
2019-06-01T14:20:33.416Z,31.90
2019-06-01T14:23:03.066Z,31.30
2019-06-01T14:25:32.698Z,30.80
2019-06-01T14:28:02.439Z,30.50
2019-06-01T14:30:32.040Z,30.20
2019-06-01T14:33:02.969Z,30.00
2019-06-01T14:35:35.682Z,30.30
2019-06-01T14:38:03.940Z,30.00
2019-06-01T14:40:33.529Z,29.80
2019-06-01T14:43:03.152Z,29.50
2019-06-01T14:45:32.894Z,29.30
2019-06-01T14:48:02.497Z,29.20
2019-06-01T14:50:32.331Z,29.20
2019-06-01T14:53:01.982Z,29.30
2019-06-01T14:55:31.647Z,29.30
2019-06-01T14:58:01.326Z,29.40
2019-06-01T15:00:30.908Z,29.90
2019-06-01T15:03:00.595Z,29.50
2019-06-01T15:05:30.359Z,29.60
2019-06-01T15:07:59.950Z,29.90
2019-06-01T15:10:29.566Z,30.00
2019-06-01T15:13:03.061Z,30.50
2019-06-01T15:15:30.388Z,30.60
2019-06-01T15:18:04.708Z,30.80
2019-06-01T15:20:31.275Z,31.10
2019-06-01T15:23:00.878Z,31.50
2019-06-01T15:25:30.508Z,32.10
2019-06-01T15:28:00.114Z,32.40
2019-06-01T15:30:29.848Z,32.50
2019-06-01T15:32:59.536Z,32.70
2019-06-01T15:35:29.138Z,33.00
2019-06-01T15:38:01.617Z,33.30
2019-06-01T15:40:30.180Z,33.60
2019-06-01T15:43:01.273Z,33.70
2019-06-01T15:45:31.156Z,34.00
2019-06-01T15:48:00.733Z,34.80
2019-06-01T15:50:30.416Z,35.40
2019-06-01T15:53:01.275Z,35.60
2019-06-01T15:55:31.027Z,35.80
2019-06-01T15:58:00.762Z,36.10
2019-06-01T16:00:30.450Z,36.90
2019-06-01T16:03:01.140Z,37.40
2019-06-01T16:05:30.955Z,37.40
2019-06-01T16:08:01.704Z,37.30
2019-06-01T16:10:31.486Z,37.10
2019-06-01T16:13:01.619Z,37.50
2019-06-01T16:15:32.554Z,37.20
2019-06-01T16:18:02.177Z,37.60
2019-06-01T16:20:32.439Z,37.70
2019-06-01T16:23:02.488Z,37.80
2019-06-01T16:25:32.188Z,37.60
2019-06-01T16:28:03.679Z,37.60
2019-06-01T16:30:33.023Z,37.80
2019-06-01T16:33:02.928Z,38.10
2019-06-01T16:35:32.732Z,38.10
2019-06-01T16:38:04.030Z,38.30
2019-06-01T16:40:33.677Z,38.20
2019-06-01T16:43:03.602Z,38.40
2019-06-01T16:45:33.288Z,38.90
2019-06-01T16:48:03.737Z,39.80
2019-06-01T16:50:33.524Z,40.30
2019-06-01T16:53:04.117Z,40.60
2019-06-01T16:55:33.817Z,40.60
2019-06-01T16:58:03.709Z,41.00
2019-06-01T17:00:33.460Z,41.20
2019-06-01T17:03:03.074Z,41.60
2019-06-01T17:05:32.793Z,42.20
2019-06-01T17:08:02.827Z,42.90
2019-06-01T17:10:32.596Z,43.50
2019-06-01T17:13:03.230Z,44.20
2019-06-01T17:15:32.966Z,45.00
2019-06-01T17:18:06.182Z,45.50
2019-06-01T17:20:48.660Z,46.20
2019-06-01T17:23:26.676Z,46.80
2019-06-01T17:25:49.768Z,47.30
2019-06-01T17:28:19.450Z,47.60
2019-06-01T17:30:49.256Z,48.40
2019-06-01T17:33:19.125Z,48.00
2019-06-01T17:35:48.855Z,48.60
2019-06-01T17:38:18.596Z,49.00
2019-06-01T17:40:48.335Z,49.00
2019-06-01T17:43:17.968Z,49.50
2019-06-01T17:45:47.530Z,49.70
2019-06-01T17:48:25.634Z,49.90
2019-06-01T17:50:48.490Z,50.00
2019-06-01T17:53:18.199Z,50.10
2019-06-01T17:55:47.787Z,50.20
2019-06-01T17:58:17.387Z,50.40
2019-06-01T18:00:46.996Z,50.50
2019-06-01T18:03:16.937Z,50.60
2019-06-01T18:05:46.622Z,50.80
2019-06-01T18:08:16.439Z,50.90
2019-06-01T18:10:53.845Z,50.90
2019-06-01T18:13:17.557Z,51.00
2019-06-01T18:15:49.978Z,51.10
2019-06-01T18:18:18.620Z,51.10
2019-06-01T18:20:48.524Z,51.30
2019-06-01T18:23:18.175Z,51.50
2019-06-01T18:25:47.881Z,51.50
2019-06-01T18:28:19.923Z,51.70
2019-06-01T18:30:50.844Z,52.20
2019-06-01T18:33:21.207Z,52.00
2019-06-01T18:35:50.901Z,51.80
2019-06-01T18:38:20.828Z,51.90
2019-06-01T18:40:50.665Z,52.10
2019-06-01T18:43:20.350Z,52.00
2019-06-01T18:45:50.191Z,52.10
2019-06-01T18:48:21.249Z,52.20
2019-06-01T18:50:50.973Z,52.30
2019-06-01T18:53:20.669Z,52.50
2019-06-01T18:55:50.588Z,52.60
2019-06-01T18:58:20.377Z,52.70
2019-06-01T19:00:50.237Z,52.80
2019-06-01T19:03:19.926Z,53.00
2019-06-01T19:05:49.616Z,53.10
2019-06-01T19:08:19.227Z,53.20
2019-06-01T19:10:49.718Z,53.30
2019-06-01T19:13:19.779Z,53.40
2019-06-01T19:15:49.445Z,53.60
2019-06-01T19:18:19.061Z,53.60
2019-06-01T19:20:48.658Z,53.70
2019-06-01T19:23:21.930Z,53.90
2019-06-01T19:25:51.156Z,53.90
2019-06-01T19:28:20.790Z,54.60
2019-06-01T19:30:50.447Z,53.90
2019-06-01T19:33:20.358Z,54.30
2019-06-01T19:35:52.325Z,54.40
2019-06-01T19:38:22.462Z,54.40
2019-06-01T19:40:52.175Z,54.90
2019-06-01T19:43:22.192Z,54.80
2019-06-01T19:45:51.877Z,54.80
2019-06-01T19:48:21.554Z,54.80
2019-06-01T19:50:52.233Z,55.30
2019-06-01T19:53:21.843Z,55.50
2019-06-01T19:55:51.561Z,55.90
2019-06-01T19:58:22.242Z,55.50
2019-06-01T20:00:52.140Z,55.90
2019-06-01T20:03:23.722Z,56.00
2019-06-01T20:05:53.896Z,56.20
2019-06-01T20:08:23.477Z,56.40
2019-06-01T20:10:53.165Z,56.80
2019-06-01T20:13:22.772Z,56.90
2019-06-01T20:15:52.425Z,57.00
2019-06-01T20:18:22.990Z,56.70
2019-06-01T20:20:52.700Z,57.30
2019-06-01T20:23:22.382Z,57.60
2019-06-01T20:25:51.971Z,57.70
2019-06-01T20:28:21.794Z,57.60
2019-06-01T20:30:51.683Z,57.70
2019-06-01T20:33:22.566Z,57.90
2019-06-01T20:35:52.431Z,58.10
2019-06-01T20:38:23.303Z,58.20
2019-06-01T20:40:54.182Z,58.30
2019-06-01T20:43:23.859Z,57.80
2019-06-01T20:45:56.767Z,58.50
2019-06-01T20:48:26.014Z,58.40
2019-06-01T20:50:55.669Z,58.80
2019-06-01T20:53:25.454Z,59.30
2019-06-01T20:55:55.030Z,60.00
2019-06-01T20:58:24.966Z,59.90
2019-06-01T21:00:54.718Z,59.70
2019-06-01T21:03:24.526Z,60.20
2019-06-01T21:05:54.254Z,60.60
2019-06-01T21:08:24.188Z,61.20
2019-06-01T21:10:54.531Z,61.30
2019-06-01T21:13:24.312Z,61.60
2019-06-01T21:15:53.923Z,61.90
2019-06-01T21:18:25.012Z,62.20
2019-06-01T21:20:54.928Z,62.10
2019-06-01T21:23:25.277Z,62.50
2019-06-01T21:25:55.177Z,62.70
2019-06-01T21:28:25.738Z,62.50
2019-06-01T21:30:55.732Z,62.30
2019-06-01T21:33:28.541Z,62.40
2019-06-01T21:35:57.428Z,62.80
2019-06-01T21:38:27.555Z,62.80
2019-06-01T21:40:58.588Z,63.00
2019-06-01T21:43:35.012Z,62.90
2019-06-01T21:46:03.066Z,62.90
2019-06-01T21:48:33.758Z,63.10
2019-06-01T21:51:04.212Z,63.00
2019-06-01T21:53:34.507Z,62.80
2019-06-01T21:56:04.629Z,63.10
2019-06-01T21:58:35.670Z,62.90
2019-06-01T22:01:06.016Z,63.00
2019-06-01T22:03:36.343Z,63.00
2019-06-01T22:06:06.284Z,63.30
2019-06-01T22:08:39.821Z,63.20
2019-06-01T22:11:11.831Z,63.00
2019-06-01T22:13:42.017Z,63.30
2019-06-01T22:16:12.179Z,63.00
2019-06-01T22:18:42.455Z,63.60
2019-06-01T22:21:12.502Z,63.30
2019-06-01T22:23:42.222Z,63.40
2019-06-01T22:26:11.817Z,63.50
2019-06-01T22:28:41.430Z,63.40
2019-06-01T22:31:11.019Z,63.30
2019-06-01T22:33:40.631Z,63.40
2019-06-01T22:36:10.219Z,63.60
2019-06-01T22:38:39.841Z,63.80
2019-06-01T22:41:09.510Z,63.60
2019-06-01T22:43:46.555Z,64.00
2019-06-01T22:46:10.374Z,64.00
2019-06-01T22:48:39.968Z,64.00
2019-06-01T22:51:09.632Z,64.10
2019-06-01T22:53:39.251Z,64.00
2019-06-01T22:56:08.844Z,65.00
2019-06-01T22:58:38.446Z,64.40
2019-06-01T23:01:08.134Z,64.50
2019-06-01T23:03:37.723Z,64.80
2019-06-01T23:06:07.481Z,64.40
2019-06-01T23:08:37.107Z,64.60
2019-06-01T23:11:06.773Z,64.90
2019-06-01T23:13:51.916Z,64.80
2019-06-01T23:16:07.679Z,65.00
2019-06-01T23:18:37.289Z,65.00
2019-06-01T23:21:06.957Z,65.30
2019-06-01T23:23:36.564Z,65.30
2019-06-01T23:26:06.249Z,66.00
2019-06-01T23:28:38.622Z,65.20
2019-06-01T23:31:07.174Z,65.50
2019-06-01T23:33:36.973Z,65.70
2019-06-01T23:36:07.812Z,65.80
2019-06-01T23:38:37.379Z,65.90
2019-06-01T23:41:07.037Z,65.90
2019-06-01T23:43:36.683Z,65.90
2019-06-01T23:46:06.342Z,66.20
2019-06-01T23:48:35.965Z,66.00
2019-06-01T23:51:05.571Z,66.10
2019-06-01T23:53:35.176Z,66.30
2019-06-01T23:56:04.875Z,66.90
2019-06-01T23:58:34.781Z,66.50
